EKRKEKOD

Guest
Details From EKRK - Roskilde
To EKOD - Odense
Flight Number -
Tags Generated
Created
Modified
Stats Distance 61 nm / 113 km
Max Altitude 0 ft / 0 m
Waypoints 2
Social Downloads 1
Likes 0
Share VATSIM

Download

Looking for another format? Having issues loading an existing format? Contact us
Advertisement - Login to hide

Notes

Generated

Route

EKRK EKOD

ID Type Via Altitude Latitude Longitude Leg Dist Tot Dist Heading (true) Name
O EKRK APT - 0 ft / 0 m 55.57840˚ 12.12385˚ - 0 nm - -
O EKOD APT - 0 ft / 0 m 55.47694˚ 10.33444˚ 61 nm 61 nm 265° / 264° Odense

Altitude Profile

Advertisement - Login to hide

EKRK

Details ICAO EKRK (RKE)
Name Copenhagen Roskilde INT
Region Denmark / Faroe Islands
Timezone Europe/Copenhagen (UTC+1.0)
Stats Elevation 146 ft / 45 m (AMSL)
Location 55.585296° 12.129176°
Runways 2
Magnetic Variation 3.548° E

METAR

EKRK 121220Z AUTO 33011KT 9999NDV -SHRA FEW011/// SCT023/// OVC032/// 02/M00 Q0994 R03/650160 R11/650162

Decode

TAF

Not found

Departure Runways

ID Width Length Bearing (true) Bearing (mag) Surface Threshold Offset Overrun Length
03 105 ft / 32 m 4,926 ft / 1,501 m 30.86° 27.31° Asphalt 0 ft / 0 m 0 ft / 0 m
11 105 ft / 32 m 5,908 ft / 1,801 m 116.31° 112.76° Asphalt 0 ft / 0 m 0 ft / 0 m
21 105 ft / 32 m 4,926 ft / 1,501 m 210.88° 207.33° Asphalt 0 ft / 0 m 0 ft / 0 m
29 105 ft / 32 m 5,908 ft / 1,801 m 296.33° 292.78° Asphalt 194 ft / 59 m 0 ft / 0 m

EKOD

Details ICAO EKOD (ODE)
Name Odense
Region Denmark / Faroe Islands
Timezone Europe/Copenhagen (UTC+1.0)
Stats Elevation 56 ft / 17 m (AMSL)
Location 55.475291° 10.333263°
Runways 2
Magnetic Variation 2.930° E

METAR

EKOD 121150Z 32015KT 9999 FEW035 SCT110 01/M00 Q0997

Decode

TAF

Not found

Destination Runways

ID Width Length Bearing (true) Bearing (mag) Surface Threshold Offset Overrun Length
06 148 ft / 45 m 6,038 ft / 1,840 m 59.70° 56.77° Asphalt 0 ft / 0 m 0 ft / 0 m
13 98 ft / 30 m 2,275 ft / 693 m 130.00° 127.07° Grass 0 ft / 0 m 0 ft / 0 m
24 148 ft / 45 m 6,038 ft / 1,840 m 239.72° 236.79° Asphalt 0 ft / 0 m 984 ft / 300 m
31 98 ft / 30 m 2,275 ft / 693 m 310.00° 307.07° Grass 361 ft / 110 m 0 ft / 0 m

Approach Navaids

Runway Type Ident Frequency Range Bearing (true) Bearing (mag) Slope Elevation
24 Localiser OD 108.35 MHz 18 nm / 33 km 239.70° 236.77° - 56 ft / 17 m (AMSL)
24 Glidescope OD 108.35 MHz 10 nm / 19 km 239.71° 236.78° 3.00° 56 ft / 17 m (AMSL)
24 DME OD 108.35 MHz 18 nm / 33 km - - - 56 ft / 17 m (AMSL)

Popular Alternatives